RYR1UL LIEE-LIRA
Flight info
| Callsign | RYR1UL |
|---|---|
| Flight time | 0h 44m |
| Altitude | 30000 |
| Route | KOVAS DCT DEXUL DCT LULIX DCT ROXAN DCT ESINO |
| Aircraft | B738/M-SDE2E3FGHIRWXY/LB1 |
Departure
| Time | 2026-05-06 16:00 |
|---|---|
| Airport | Cagliari Elmas Airport (LIEE) |
Arrival
| Time | 2026-05-06 16:44 |
|---|---|
| Airport | Ciampino–G. B. Pastine International Airport (LIRA) |
| Time | Latitude | Longitude | Altitude | Speed | Heading |
|---|---|---|---|---|---|
| 2026-05-06 15:40 | 39.25285 | 9.06017 | 14 ft | 0 kts | 321° |
| 2026-05-06 15:53 | 39.25279 | 9.06023 | 15 ft | 4 kts | 321° |
| 2026-05-06 15:53 | 39.25258 | 9.06043 | 14 ft | 4 kts | 343° |
| 2026-05-06 15:54 | 39.25242 | 9.06042 | 16 ft | 4 kts | 18° |
| 2026-05-06 15:54 | 39.25224 | 9.06040 | 14 ft | 4 kts | 292° |
| 2026-05-06 15:54 | 39.25228 | 9.06064 | 15 ft | 4 kts | 232° |
| 2026-05-06 15:54 | 39.25235 | 9.06074 | 14 ft | 0 kts | 232° |
| 2026-05-06 15:56 | 39.25232 | 9.06071 | 14 ft | 4 kts | 232° |
| 2026-05-06 15:56 | 39.25180 | 9.05986 | 14 ft | 18 kts | 232° |
| 2026-05-06 15:57 | 39.25153 | 9.05874 | 14 ft | 13 kts | 274° |
| 2026-05-06 15:57 | 39.25104 | 9.05778 | 14 ft | 14 kts | 188° |
| 2026-05-06 15:57 | 39.25007 | 9.05866 | 14 ft | 24 kts | 137° |
| 2026-05-06 15:57 | 39.24856 | 9.06040 | 14 ft | 32 kts | 138° |
| 2026-05-06 15:58 | 39.24702 | 9.06215 | 14 ft | 28 kts | 139° |
| 2026-05-06 15:58 | 39.24561 | 9.06381 | 14 ft | 27 kts | 139° |
| 2026-05-06 15:58 | 39.24430 | 9.06534 | 14 ft | 21 kts | 137° |
| 2026-05-06 15:58 | 39.24310 | 9.06554 | 15 ft | 18 kts | 197° |
| 2026-05-06 15:59 | 39.24248 | 9.06474 | 18 ft | 13 kts | 304° |
| 2026-05-06 15:59 | 39.24356 | 9.06344 | 15 ft | 45 kts | 318° |
| 2026-05-06 15:59 | 39.24752 | 9.05886 | 14 ft | 105 kts | 318° |
| 2026-05-06 15:59 | 39.25423 | 9.05108 | 22 ft | 152 kts | 317° |
| 2026-05-06 16:00 | 39.26240 | 9.04126 | 406 ft | 164 kts | 317° |
| 2026-05-06 16:00 | 39.27040 | 9.03114 | 1151 ft | 162 kts | 329° |
| 2026-05-06 16:00 | 39.28128 | 9.02893 | 1626 ft | 160 kts | 12° |
| 2026-05-06 16:00 | 39.29300 | 9.03100 | 2146 ft | 189 kts | 8° |
| 2026-05-06 16:01 | 39.30712 | 9.03295 | 2665 ft | 212 kts | 7° |
| 2026-05-06 16:01 | 39.32205 | 9.03568 | 3429 ft | 221 kts | 10° |
| 2026-05-06 16:01 | 39.33766 | 9.03788 | 4280 ft | 230 kts | 359° |
| 2026-05-06 16:01 | 39.35363 | 9.03724 | 5388 ft | 229 kts | 358° |
| 2026-05-06 16:02 | 39.36946 | 9.03814 | 6444 ft | 227 kts | 6° |
| 2026-05-06 16:02 | 39.38533 | 9.04016 | 7264 ft | 232 kts | 5° |
| 2026-05-06 16:02 | 39.40152 | 9.04184 | 8051 ft | 235 kts | 2° |
| 2026-05-06 16:02 | 39.41793 | 9.04331 | 8887 ft | 238 kts | 2° |
| 2026-05-06 16:03 | 39.43452 | 9.04472 | 9795 ft | 240 kts | 3° |
| 2026-05-06 16:03 | 39.45138 | 9.04612 | 10606 ft | 246 kts | 2° |
| 2026-05-06 16:03 | 39.46880 | 9.04824 | 11301 ft | 261 kts | 7° |
| 2026-05-06 16:03 | 39.48795 | 9.05027 | 11592 ft | 294 kts | 358° |
| 2026-05-06 16:04 | 39.50946 | 9.05177 | 11870 ft | 322 kts | 5° |
| 2026-05-06 16:04 | 39.53210 | 9.05507 | 12561 ft | 332 kts | 6° |
| 2026-05-06 16:04 | 39.55522 | 9.05866 | 13329 ft | 337 kts | 5° |
| 2026-05-06 16:04 | 39.57872 | 9.06211 | 14044 ft | 342 kts | 5° |
| 2026-05-06 16:05 | 39.60252 | 9.06535 | 14720 ft | 346 kts | 4° |
| 2026-05-06 16:05 | 39.62661 | 9.06850 | 15449 ft | 350 kts | 3° |
| 2026-05-06 16:05 | 39.65090 | 9.07190 | 16244 ft | 354 kts | 6° |
| 2026-05-06 16:05 | 39.67531 | 9.07860 | 17008 ft | 362 kts | 12° |
| 2026-05-06 16:06 | 39.69959 | 9.08728 | 17741 ft | 371 kts | 14° |
| 2026-05-06 16:06 | 39.72466 | 9.09640 | 18500 ft | 376 kts | 13° |
| 2026-05-06 16:06 | 39.75009 | 9.10540 | 19103 ft | 381 kts | 12° |
| 2026-05-06 16:06 | 39.77579 | 9.11420 | 19753 ft | 382 kts | 11° |
| 2026-05-06 16:07 | 39.80162 | 9.12285 | 20356 ft | 385 kts | 11° |
| 2026-05-06 16:07 | 39.82768 | 9.13166 | 20952 ft | 390 kts | 14° |
| 2026-05-06 16:07 | 39.85270 | 9.14608 | 21497 ft | 399 kts | 31° |
| 2026-05-06 16:07 | 39.87422 | 9.16924 | 22069 ft | 406 kts | 46° |
| 2026-05-06 16:08 | 39.89139 | 9.19856 | 22649 ft | 409 kts | 54° |
| 2026-05-06 16:08 | 39.90762 | 9.22911 | 23305 ft | 410 kts | 56° |
| 2026-05-06 16:08 | 39.92375 | 9.25999 | 23794 ft | 414 kts | 56° |
| 2026-05-06 16:08 | 39.94005 | 9.29113 | 24273 ft | 416 kts | 56° |
| 2026-05-06 16:09 | 39.95643 | 9.32218 | 24816 ft | 417 kts | 56° |
| 2026-05-06 16:09 | 39.97304 | 9.35343 | 25260 ft | 420 kts | 56° |
| 2026-05-06 16:09 | 39.98971 | 9.38465 | 25874 ft | 418 kts | 56° |
| 2026-05-06 16:09 | 40.00641 | 9.41583 | 26325 ft | 422 kts | 56° |
| 2026-05-06 16:10 | 40.02329 | 9.44736 | 26756 ft | 425 kts | 56° |
| 2026-05-06 16:10 | 40.04027 | 9.47907 | 27194 ft | 428 kts | 57° |
| 2026-05-06 16:10 | 40.05740 | 9.51111 | 27577 ft | 433 kts | 57° |
| 2026-05-06 16:10 | 40.07462 | 9.54334 | 28151 ft | 432 kts | 57° |
| 2026-05-06 16:11 | 40.09173 | 9.57539 | 28767 ft | 430 kts | 57° |
| 2026-05-06 16:11 | 40.10883 | 9.60749 | 29234 ft | 431 kts | 57° |
| 2026-05-06 16:11 | 40.12595 | 9.63976 | 29564 ft | 435 kts | 58° |
| 2026-05-06 16:11 | 40.14344 | 9.67264 | 29659 ft | 446 kts | 57° |
| 2026-05-06 16:12 | 40.16133 | 9.70628 | 29793 ft | 456 kts | 57° |
| 2026-05-06 16:12 | 40.17957 | 9.74062 | 29925 ft | 464 kts | 57° |
| 2026-05-06 16:12 | 40.21704 | 9.81131 | 29965 ft | 481 kts | 57° |
| 2026-05-06 16:13 | 40.25573 | 9.88461 | 29954 ft | 497 kts | 58° |
| 2026-05-06 16:13 | 40.29201 | 9.96298 | 29954 ft | 510 kts | 63° |
| 2026-05-06 16:14 | 40.32707 | 10.04505 | 29957 ft | 522 kts | 63° |
| 2026-05-06 16:14 | 40.36304 | 10.12892 | 29955 ft | 532 kts | 63° |
| 2026-05-06 16:15 | 40.39989 | 10.21374 | 29932 ft | 536 kts | 62° |
| 2026-05-06 16:15 | 40.43663 | 10.29799 | 29943 ft | 535 kts | 62° |
| 2026-05-06 16:16 | 40.47348 | 10.38276 | 29946 ft | 534 kts | 62° |
| 2026-05-06 16:16 | 40.51015 | 10.46747 | 29950 ft | 533 kts | 63° |
| 2026-05-06 16:17 | 40.54663 | 10.55205 | 29952 ft | 532 kts | 63° |
| 2026-05-06 16:17 | 40.58307 | 10.63675 | 29949 ft | 532 kts | 63° |
| 2026-05-06 16:18 | 40.61949 | 10.72162 | 29960 ft | 533 kts | 63° |
| 2026-05-06 16:18 | 40.65588 | 10.80667 | 29961 ft | 533 kts | 63° |
| 2026-05-06 16:19 | 40.67403 | 10.84918 | 29842 ft | 533 kts | 63° |
| 2026-05-06 16:19 | 40.69221 | 10.89183 | 29340 ft | 533 kts | 63° |
| 2026-05-06 16:19 | 40.71030 | 10.93430 | 28767 ft | 530 kts | 63° |
| 2026-05-06 16:19 | 40.72831 | 10.97666 | 28192 ft | 528 kts | 63° |
| 2026-05-06 16:20 | 40.74612 | 11.01858 | 27576 ft | 521 kts | 63° |
| 2026-05-06 16:20 | 40.75799 | 11.04657 | 27197 ft | 515 kts | 63° |
| 2026-05-06 16:20 | 40.77533 | 11.08749 | 26752 ft | 506 kts | 63° |
| 2026-05-06 16:20 | 40.79229 | 11.12757 | 26466 ft | 493 kts | 63° |
| 2026-05-06 16:21 | 40.80874 | 11.16648 | 26211 ft | 476 kts | 62° |
| 2026-05-06 16:21 | 40.82636 | 11.20250 | 25925 ft | 459 kts | 53° |
| 2026-05-06 16:21 | 40.84664 | 11.23340 | 25587 ft | 445 kts | 45° |
| 2026-05-06 16:21 | 40.86971 | 11.25969 | 25183 ft | 433 kts | 37° |
| 2026-05-06 16:22 | 40.89326 | 11.28365 | 24792 ft | 422 kts | 37° |
| 2026-05-06 16:22 | 40.91627 | 11.30693 | 24395 ft | 412 kts | 37° |
| 2026-05-06 16:22 | 40.93888 | 11.32990 | 24016 ft | 408 kts | 37° |
| 2026-05-06 16:22 | 40.96132 | 11.35285 | 23618 ft | 408 kts | 37° |
| 2026-05-06 16:23 | 40.98363 | 11.37580 | 23170 ft | 402 kts | 38° |
| 2026-05-06 16:23 | 41.00544 | 11.39834 | 22759 ft | 393 kts | 38° |
| 2026-05-06 16:23 | 41.02675 | 11.42043 | 22363 ft | 385 kts | 38° |
| 2026-05-06 16:23 | 41.04758 | 11.44205 | 21986 ft | 376 kts | 38° |
| 2026-05-06 16:24 | 41.06796 | 11.46324 | 21625 ft | 368 kts | 38° |
| 2026-05-06 16:24 | 41.08791 | 11.48399 | 21276 ft | 361 kts | 38° |
| 2026-05-06 16:24 | 41.10747 | 11.50435 | 20938 ft | 355 kts | 38° |
| 2026-05-06 16:24 | 41.12690 | 11.52459 | 20602 ft | 354 kts | 38° |
| 2026-05-06 16:25 | 41.14626 | 11.54478 | 20263 ft | 354 kts | 38° |
| 2026-05-06 16:25 | 41.16564 | 11.56499 | 19922 ft | 354 kts | 38° |
| 2026-05-06 16:25 | 41.18500 | 11.58521 | 19578 ft | 354 kts | 38° |
| 2026-05-06 16:25 | 41.20435 | 11.60542 | 19240 ft | 354 kts | 39° |
| 2026-05-06 16:26 | 41.22372 | 11.62568 | 18884 ft | 355 kts | 39° |
| 2026-05-06 16:26 | 41.24310 | 11.64597 | 18535 ft | 355 kts | 39° |
| 2026-05-06 16:26 | 41.26248 | 11.66627 | 18164 ft | 355 kts | 39° |
| 2026-05-06 16:26 | 41.28186 | 11.68659 | 17751 ft | 354 kts | 39° |
| 2026-05-06 16:27 | 41.30119 | 11.70687 | 17387 ft | 353 kts | 39° |
| 2026-05-06 16:27 | 41.32043 | 11.72707 | 17020 ft | 352 kts | 39° |
| 2026-05-06 16:27 | 41.33959 | 11.74719 | 16662 ft | 350 kts | 39° |
| 2026-05-06 16:27 | 41.35868 | 11.76726 | 16322 ft | 349 kts | 39° |
| 2026-05-06 16:28 | 41.37767 | 11.78725 | 15965 ft | 348 kts | 39° |
| 2026-05-06 16:28 | 41.39639 | 11.80694 | 15698 ft | 336 kts | 39° |
| 2026-05-06 16:28 | 41.41445 | 11.82591 | 15412 ft | 327 kts | 39° |
| 2026-05-06 16:28 | 41.43207 | 11.84444 | 15098 ft | 319 kts | 39° |
| 2026-05-06 16:29 | 41.44905 | 11.86232 | 14788 ft | 312 kts | 39° |
| 2026-05-06 16:29 | 41.46610 | 11.88028 | 14474 ft | 305 kts | 39° |
| 2026-05-06 16:29 | 41.48240 | 11.89747 | 14197 ft | 303 kts | 39° |
| 2026-05-06 16:29 | 41.49908 | 11.91508 | 13900 ft | 308 kts | 39° |
| 2026-05-06 16:30 | 41.51607 | 11.93304 | 13575 ft | 315 kts | 39° |
| 2026-05-06 16:30 | 41.52773 | 11.94536 | 13338 ft | 319 kts | 39° |
| 2026-05-06 16:30 | 41.55078 | 11.96973 | 12862 ft | 320 kts | 39° |
| 2026-05-06 16:30 | 41.56828 | 11.98823 | 12501 ft | 321 kts | 39° |
| 2026-05-06 16:31 | 41.58574 | 12.00672 | 12190 ft | 319 kts | 39° |
| 2026-05-06 16:31 | 41.60296 | 12.02495 | 11846 ft | 315 kts | 39° |
| 2026-05-06 16:31 | 41.62015 | 12.04308 | 11509 ft | 314 kts | 39° |
| 2026-05-06 16:31 | 41.63717 | 12.06103 | 11156 ft | 308 kts | 39° |
| 2026-05-06 16:32 | 41.65379 | 12.07858 | 10836 ft | 301 kts | 39° |
| 2026-05-06 16:32 | 41.67003 | 12.09573 | 10521 ft | 294 kts | 39° |
| 2026-05-06 16:32 | 41.68592 | 12.11252 | 10210 ft | 288 kts | 39° |
| 2026-05-06 16:32 | 41.70137 | 12.12887 | 10036 ft | 277 kts | 39° |
| 2026-05-06 16:33 | 41.71649 | 12.14487 | 9807 ft | 281 kts | 39° |
| 2026-05-06 16:33 | 41.73198 | 12.16130 | 9511 ft | 287 kts | 39° |
| 2026-05-06 16:33 | 41.74782 | 12.17809 | 9208 ft | 294 kts | 39° |
| 2026-05-06 16:34 | 41.77990 | 12.21213 | 8636 ft | 293 kts | 39° |
| 2026-05-06 16:34 | 41.79572 | 12.22892 | 8509 ft | 286 kts | 38° |
| 2026-05-06 16:34 | 41.81247 | 12.24277 | 8256 ft | 284 kts | 20° |
| 2026-05-06 16:34 | 41.83116 | 12.25109 | 8002 ft | 282 kts | 17° |
| 2026-05-06 16:35 | 41.84988 | 12.25900 | 7709 ft | 283 kts | 17° |
| 2026-05-06 16:35 | 41.86870 | 12.26706 | 7406 ft | 284 kts | 17° |
| 2026-05-06 16:35 | 41.88742 | 12.27523 | 7098 ft | 280 kts | 18° |
| 2026-05-06 16:35 | 41.90573 | 12.28331 | 6815 ft | 274 kts | 18° |
| 2026-05-06 16:36 | 41.92361 | 12.29127 | 6554 ft | 269 kts | 18° |
| 2026-05-06 16:36 | 41.94135 | 12.29920 | 6297 ft | 269 kts | 18° |
| 2026-05-06 16:36 | 41.95908 | 12.30716 | 6035 ft | 269 kts | 18° |
| 2026-05-06 16:36 | 41.97670 | 12.31508 | 5892 ft | 263 kts | 18° |
| 2026-05-06 16:37 | 41.99387 | 12.32281 | 5764 ft | 257 kts | 18° |
| 2026-05-06 16:37 | 42.01047 | 12.33078 | 5676 ft | 251 kts | 27° |
| 2026-05-06 16:37 | 42.02308 | 12.34590 | 5532 ft | 241 kts | 63° |
| 2026-05-06 16:37 | 42.02838 | 12.36672 | 5310 ft | 234 kts | 85° |
| 2026-05-06 16:38 | 42.02860 | 12.38808 | 5162 ft | 225 kts | 97° |
| 2026-05-06 16:38 | 42.02792 | 12.40912 | 4913 ft | 225 kts | 96° |
| 2026-05-06 16:38 | 42.02556 | 12.42949 | 4685 ft | 218 kts | 120° |
| 2026-05-06 16:38 | 42.01554 | 12.44351 | 4483 ft | 205 kts | 153° |
| 2026-05-06 16:39 | 42.00324 | 12.45295 | 4262 ft | 204 kts | 153° |
| 2026-05-06 16:39 | 41.99083 | 12.46216 | 4051 ft | 204 kts | 154° |
| 2026-05-06 16:39 | 41.97825 | 12.47105 | 3826 ft | 204 kts | 155° |
| 2026-05-06 16:39 | 41.96561 | 12.47982 | 3600 ft | 205 kts | 155° |
| 2026-05-06 16:40 | 41.95296 | 12.48856 | 3433 ft | 203 kts | 155° |
| 2026-05-06 16:40 | 41.94058 | 12.49713 | 3276 ft | 200 kts | 155° |
| 2026-05-06 16:40 | 41.92826 | 12.50565 | 3041 ft | 198 kts | 155° |
| 2026-05-06 16:40 | 41.91608 | 12.51408 | 2782 ft | 195 kts | 155° |
| 2026-05-06 16:41 | 41.90424 | 12.52227 | 2524 ft | 188 kts | 155° |
| 2026-05-06 16:41 | 41.89289 | 12.53012 | 2284 ft | 179 kts | 155° |
| 2026-05-06 16:41 | 41.88234 | 12.53743 | 2052 ft | 163 kts | 155° |
| 2026-05-06 16:41 | 41.87275 | 12.54406 | 1824 ft | 148 kts | 156° |
| 2026-05-06 16:42 | 41.86416 | 12.55002 | 1666 ft | 129 kts | 156° |
| 2026-05-06 16:42 | 41.85655 | 12.55527 | 1471 ft | 118 kts | 156° |
| 2026-05-06 16:42 | 41.84932 | 12.56026 | 1325 ft | 117 kts | 156° |
| 2026-05-06 16:42 | 41.84188 | 12.56541 | 1176 ft | 123 kts | 155° |
| 2026-05-06 16:43 | 41.83429 | 12.57067 | 992 ft | 119 kts | 155° |
| 2026-05-06 16:43 | 41.82711 | 12.57531 | 838 ft | 114 kts | 156° |
| 2026-05-06 16:43 | 41.82019 | 12.58108 | 694 ft | 121 kts | 154° |
| 2026-05-06 16:43 | 41.81234 | 12.58610 | 552 ft | 128 kts | 157° |
| 2026-05-06 16:44 | 41.80448 | 12.59139 | 418 ft | 122 kts | 155° |
| 2026-05-06 16:44 | 41.79808 | 12.59574 | 410 ft | 81 kts | 152° |
| 2026-05-06 16:44 | 41.79411 | 12.59846 | 410 ft | 39 kts | 153° |
| 2026-05-06 16:44 | 41.79192 | 12.59997 | 410 ft | 33 kts | 152° |
| 2026-05-06 16:45 | 41.79068 | 12.60041 | 412 ft | 16 kts | 211° |
| 2026-05-06 16:45 | 41.79035 | 12.59917 | 403 ft | 12 kts | 301° |
| 2026-05-06 16:45 | 41.79106 | 12.59855 | 406 ft | 12 kts | 331° |
| 2026-05-06 16:45 | 41.79178 | 12.59800 | 406 ft | 12 kts | 332° |
| 2026-05-06 16:46 | 41.79251 | 12.59753 | 406 ft | 11 kts | 335° |
| 2026-05-06 16:46 | 41.79329 | 12.59699 | 405 ft | 16 kts | 332° |
| 2026-05-06 16:46 | 41.79439 | 12.59623 | 406 ft | 18 kts | 333° |
| 2026-05-06 16:46 | 41.79548 | 12.59547 | 405 ft | 18 kts | 333° |
| 2026-05-06 16:47 | 41.79655 | 12.59475 | 404 ft | 17 kts | 333° |
| 2026-05-06 16:47 | 41.79759 | 12.59403 | 406 ft | 18 kts | 333° |
| 2026-05-06 16:47 | 41.79888 | 12.59314 | 406 ft | 22 kts | 332° |
| 2026-05-06 16:47 | 41.80009 | 12.59229 | 406 ft | 11 kts | 331° |
| 2026-05-06 16:48 | 41.80024 | 12.59195 | 405 ft | 4 kts | 259° |
| 2026-05-06 16:48 | 41.80009 | 12.59148 | 402 ft | 4 kts | 243° |
| 2026-05-06 16:48 | 41.80006 | 12.59128 | 405 ft | 2 kts | 288° |
| 2026-05-06 16:48 | 41.80009 | 12.59121 | 405 ft | 0 kts | 295° |
| 2026-05-06 16:49 | 41.80009 | 12.59120 | 405 ft | 0 kts | 293° |